Time;durP1;ratioP1;P1;durP2;ratioP2;P2;SDS_P1;SDS_P2;PMS_P1;PMS_P2;Temp;Humidity;BMP_temperature;BMP_pressure;BME280_temperature;BME280_humidity;BME280_pressure;Samples;Min_cycle;Max_cycle;Signal;HPM_P1;HPM_P2
2024/01/15 00:00:59;;;;;;;21.90;15.30;;;;;21.20;99138.00;;;;2052085;28;20239;-56
2024/01/15 00:01:59;;;;;;;20.17;14.73;;;;;21.20;99144.00;;;;2054058;28;20231;-53
2024/01/15 00:03:00;;;;;;;21.90;14.47;;;;;21.20;99139.00;;;;2038403;28;20239;-54
2024/01/15 00:04:00;;;;;;;22.90;15.00;;;;;21.20;99142.00;;;;2051042;28;20216;-53
2024/01/15 00:05:00;;;;;;;20.17;14.13;;;;;21.20;99134.00;;;;2045377;28;21298;-52
2024/01/15 00:06:01;;;;;;;20.70;13.90;;;;;21.20;99136.00;;;;2046092;28;20231;-53
2024/01/15 00:07:01;;;;;;;19.97;14.10;;;;;20.80;99136.00;;;;2044736;28;20227;-53
2024/01/15 00:08:01;;;;;;;19.47;13.40;;;;;21.20;99131.00;;;;2035954;28;20215;-54
2024/01/15 00:09:02;;;;;;;18.70;14.10;;;;;21.20;99132.00;;;;2055804;28;20219;-54
2024/01/15 00:10:02;;;;;;;17.53;13.53;;;;;21.20;99132.00;;;;2049104;28;20224;-53
2024/01/15 00:11:02;;;;;;;21.63;13.50;;;;;21.20;99126.00;;;;2041743;28;20223;-52
2024/01/15 00:12:03;;;;;;;18.57;13.80;;;;;21.20;99130.00;;;;2049038;28;20743;-52
2024/01/15 00:13:03;;;;;;;18.97;14.10;;;;;21.10;99126.00;;;;2035571;28;20215;-55
2024/01/15 00:14:04;;;;;;;16.13;13.33;;;;;21.20;99125.00;;;;2045273;28;20219;-54
2024/01/15 00:15:05;;;;;;;19.80;14.00;;;;;21.20;99123.00;;;;2048550;28;20224;-53
2024/01/15 00:16:05;;;;;;;16.90;13.40;;;;;21.10;99124.00;;;;2043288;28;20599;-53
2024/01/15 00:17:05;;;;;;;16.87;12.77;;;;;21.10;99118.00;;;;2050011;28;20460;-52
2024/01/15 00:18:06;;;;;;;17.10;12.57;;;;;21.10;99116.00;;;;2040543;28;20219;-55
2024/01/15 00:19:06;;;;;;;16.20;12.10;;;;;21.10;99114.00;;;;2045686;28;20228;-53
2024/01/15 00:20:07;;;;;;;16.87;13.00;;;;;21.10;99117.00;;;;2045329;28;20295;-53
2024/01/15 00:21:07;;;;;;;17.47;13.30;;;;;21.10;99118.00;;;;2043023;28;20563;-55
2024/01/15 00:22:07;;;;;;;16.83;12.20;;;;;21.10;99108.00;;;;2043904;28;20224;-55
2024/01/15 00:23:08;;;;;;;17.33;12.53;;;;;20.20;99105.00;;;;2037696;28;20215;-54
2024/01/15 00:24:08;;;;;;;19.00;14.10;;;;;21.10;99107.00;;;;2060613;28;20296;-55
2024/01/15 00:25:09;;;;;;;16.17;12.47;;;;;21.10;99101.00;;;;2059653;28;20223;-55
2024/01/15 00:26:09;;;;;;;17.10;12.87;;;;;21.10;99109.00;;;;2059130;28;20722;-55
2024/01/15 00:27:09;;;;;;;16.77;12.40;;;;;21.10;99107.00;;;;2045989;28;20728;-53
2024/01/15 00:28:10;;;;;;;16.37;12.13;;;;;21.10;99107.00;;;;2042836;28;20700;-53
2024/01/15 00:29:10;;;;;;;17.77;12.20;;;;;21.10;99094.00;;;;2049141;28;20723;-54
2024/01/15 00:30:11;;;;;;;17.50;12.30;;;;;21.10;99095.00;;;;2038705;28;20235;-55
2024/01/15 00:31:11;;;;;;;18.67;12.27;;;;;21.10;99102.00;;;;2049145;28;20224;-53
2024/01/15 00:32:11;;;;;;;15.63;11.00;;;;;21.10;99108.00;;;;2046428;28;20511;-55
2024/01/15 00:33:12;;;;;;;18.20;12.80;;;;;21.10;99092.00;;;;2038823;28;20294;-53
2024/01/15 00:34:12;;;;;;;15.90;11.47;;;;;21.10;99098.00;;;;2045595;28;20216;-53
2024/01/15 00:35:13;;;;;;;16.70;12.13;;;;;21.00;99101.00;;;;2048499;28;20274;-55
2024/01/15 00:36:14;;;;;;;15.33;11.10;;;;;21.00;99106.00;;;;2052995;28;20215;-53
2024/01/15 00:37:14;;;;;;;16.50;11.45;;;;;21.00;99098.00;;;;2041323;28;20213;-52
2024/01/15 00:38:15;;;;;;;16.10;11.20;;;;;21.00;99095.00;;;;2048568;28;20235;-51
2024/01/15 00:39:16;;;;;;;15.23;11.80;;;;;21.00;99103.00;;;;2044366;28;20303;-54
2024/01/15 00:40:16;;;;;;;14.32;10.90;;;;;21.00;99097.00;;;;2052579;28;20211;-54
2024/01/15 00:41:18;;;;;;;19.30;11.60;;;;;21.00;99097.00;;;;2045482;28;20681;-54
2024/01/15 00:42:18;;;;;;;15.30;10.98;;;;;21.00;99110.00;;;;2050923;28;20310;-53
2024/01/15 00:43:19;;;;;;;14.30;11.17;;;;;21.00;99116.00;;;;2035224;28;20593;-54
2024/01/15 00:44:19;;;;;;;15.00;10.50;;;;;21.00;99098.00;;;;2050959;28;20712;-55
2024/01/15 00:45:19;;;;;;;14.30;11.00;;;;;21.00;99098.00;;;;2045525;28;20546;-53
2024/01/15 00:46:20;;;;;;;14.67;11.40;;;;;21.00;99109.00;;;;2046890;28;20653;-54
2024/01/15 00:47:20;;;;;;;14.30;10.40;;;;;21.00;99105.00;;;;2049719;28;20324;-53
2024/01/15 00:48:20;;;;;;;15.17;11.70;;;;;21.00;99095.00;;;;2042232;28;20215;-53
2024/01/15 00:49:21;;;;;;;14.17;10.47;;;;;21.00;99099.00;;;;2044914;28;20332;-51
2024/01/15 00:50:21;;;;;;;13.43;10.57;;;;;21.00;99103.00;;;;2048863;28;20216;-53
2024/01/15 00:51:21;;;;;;;15.80;10.97;;;;;21.00;99099.00;;;;2040598;28;20212;-54
2024/01/15 00:52:22;;;;;;;13.43;10.40;;;;;21.00;99100.00;;;;2048652;28;20296;-54
2024/01/15 00:53:22;;;;;;;14.37;9.97;;;;;21.00;99093.00;;;;2036051;28;20239;-53
2024/01/15 00:54:22;;;;;;;15.40;11.87;;;;;21.00;99087.00;;;;2049455;28;20222;-53
2024/01/15 00:55:23;;;;;;;15.73;11.60;;;;;21.00;99099.00;;;;2043255;28;20216;-53
2024/01/15 00:56:23;;;;;;;13.57;10.20;;;;;21.00;99095.00;;;;2049236;28;20211;-53
2024/01/15 00:57:23;;;;;;;13.83;10.30;;;;;21.00;99095.00;;;;2053730;28;20242;-53
2024/01/15 00:58:24;;;;;;;14.83;10.17;;;;;21.00;99089.00;;;;2043031;28;20212;-52
2024/01/15 00:59:24;;;;;;;15.60;9.77;;;;;21.00;99093.00;;;;2051938;28;20224;-55
2024/01/15 01:00:24;;;;;;;13.53;9.63;;;;;21.00;99095.00;;;;2048621;28;20239;-54
2024/01/15 01:01:24;;;;;;;12.60;9.93;;;;;20.90;99097.00;;;;2055021;28;20215;-54
2024/01/15 01:02:26;;;;;;;14.67;10.37;;;;;20.90;99146.00;;;;2050981;28;20211;-53
2024/01/15 01:03:26;;;;;;;12.77;9.63;;;;;20.90;99094.00;;;;2034017;28;20227;-55
2024/01/15 01:04:26;;;;;;;15.80;10.90;;;;;20.90;99089.00;;;;2046275;28;20246;-54
2024/01/15 01:05:27;;;;;;;16.47;10.17;;;;;20.90;99088.00;;;;2045553;28;20213;-53
2024/01/15 01:06:27;;;;;;;13.50;10.20;;;;;20.90;99097.00;;;;2047106;28;20205;-52
2024/01/15 01:07:27;;;;;;;11.50;8.87;;;;;20.90;99094.00;;;;2048256;28;20234;-54
2024/01/15 01:08:28;;;;;;;18.10;9.63;;;;;20.90;99101.00;;;;2047722;28;20211;-52
2024/01/15 01:09:30;;;;;;;11.23;8.83;;;;;20.90;99093.00;;;;2051525;28;20207;-52
2024/01/15 01:10:30;;;;;;;11.75;9.30;;;;;20.90;99094.00;;;;2048965;28;20271;-53
2024/01/15 01:11:30;;;;;;;12.20;9.70;;;;;20.90;99085.00;;;;2049085;28;20204;-53
2024/01/15 01:12:31;;;;;;;14.90;10.03;;;;;20.90;99087.00;;;;2034568;28;20204;-54
2024/01/15 01:13:31;;;;;;;10.23;8.00;;;;;20.90;99096.00;;;;2039855;28;20274;-53
2024/01/15 01:14:31;;;;;;;13.23;9.90;;;;;20.90;99085.00;;;;2048197;28;20216;-54
2024/01/15 01:15:32;;;;;;;12.33;9.10;;;;;20.90;99086.00;;;;2045590;28;20255;-53
2024/01/15 01:16:38;;;;;;;12.10;9.10;;;;;20.90;99087.00;;;;2048821;28;20211;-53
2024/01/15 01:17:38;;;;;;;11.88;8.77;;;;;20.90;99086.00;;;;2044036;28;20291;-53
2024/01/15 01:18:39;;;;;;;11.73;9.33;;;;;20.90;99130.00;;;;2048640;28;20350;-56
2024/01/15 01:19:39;;;;;;;11.30;8.50;;;;;20.90;99078.00;;;;2045134;28;20638;-54
2024/01/15 01:20:39;;;;;;;12.63;9.60;;;;;20.90;99084.00;;;;2045346;28;20252;-54
2024/01/15 01:21:40;;;;;;;11.70;8.83;;;;;20.90;99076.00;;;;2048065;28;20223;-54
2024/01/15 01:22:40;;;;;;;11.53;8.60;;;;;20.90;99080.00;;;;2037494;28;20239;-53
2024/01/15 01:23:41;;;;;;;11.87;9.13;;;;;20.90;99085.00;;;;2052750;28;20223;-53
2024/01/15 01:24:41;;;;;;;12.10;8.73;;;;;20.80;99077.00;;;;2049173;28;20220;-54
2024/01/15 01:25:41;;;;;;;11.57;8.50;;;;;20.80;99073.00;;;;2043055;28;20216;-56
2024/01/15 01:26:42;;;;;;;10.60;8.20;;;;;20.80;99078.00;;;;2043642;28;20220;-53
2024/01/15 01:27:42;;;;;;;11.40;9.03;;;;;20.80;99082.00;;;;2042394;28;20219;-53
2024/01/15 01:28:42;;;;;;;12.30;9.13;;;;;20.80;99080.00;;;;2056496;28;20222;-54
2024/01/15 01:29:42;;;;;;;12.30;8.57;;;;;20.80;99078.00;;;;2056316;28;20220;-53
2024/01/15 01:30:43;;;;;;;12.93;9.20;;;;;20.80;99075.00;;;;2046487;28;20219;-53
2024/01/15 01:31:46;;;;;;;12.00;8.90;;;;;20.80;99076.00;;;;2045507;28;20220;-53
2024/01/15 01:32:46;;;;;;;10.30;7.97;;;;;20.80;99068.00;;;;2037714;28;21910;-53
2024/01/15 01:33:47;;;;;;;14.17;9.50;;;;;20.80;99070.00;;;;2048097;28;20224;-53
2024/01/15 01:34:47;;;;;;;11.87;8.30;;;;;20.80;99075.00;;;;2047946;28;20745;-55
2024/01/15 01:35:47;;;;;;;12.07;7.77;;;;;20.80;99079.00;;;;2047596;28;20584;-52
2024/01/15 01:36:48;;;;;;;11.43;8.33;;;;;20.80;99077.00;;;;2042142;28;20218;-52
2024/01/15 01:37:48;;;;;;;11.60;8.43;;;;;20.80;99069.00;;;;2038198;28;20294;-55
2024/01/15 01:38:48;;;;;;;10.93;8.13;;;;;20.80;99071.00;;;;2051638;28;20223;-54
2024/01/15 01:39:49;;;;;;;9.50;8.20;;;;;20.80;99076.00;;;;2051669;28;20247;-53
2024/01/15 01:40:49;;;;;;;9.47;7.80;;;;;20.80;99083.00;;;;2055976;28;20243;-54
2024/01/15 01:41:49;;;;;;;10.53;8.30;;;;;20.80;99076.00;;;;2052256;28;22141;-54
2024/01/15 01:42:50;;;;;;;13.57;8.70;;;;;20.80;99083.00;;;;2036337;28;20296;-54
2024/01/15 01:43:50;;;;;;;10.73;7.77;;;;;20.50;99077.00;;;;2049917;28;20219;-55
2024/01/15 01:44:50;;;;;;;10.23;8.17;;;;;20.80;99072.00;;;;2051405;28;20238;-55
2024/01/15 01:45:51;;;;;;;10.37;7.93;;;;;20.80;99076.00;;;;2047512;28;20328;-56
2024/01/15 01:46:51;;;;;;;8.73;6.77;;;;;20.80;99083.00;;;;2046328;28;20589;-54
2024/01/15 01:47:51;;;;;;;10.93;7.90;;;;;20.80;99070.00;;;;2043847;28;20261;-53
2024/01/15 01:48:52;;;;;;;11.60;8.13;;;;;20.80;99077.00;;;;2056730;28;20306;-53
2024/01/15 01:49:53;;;;;;;9.40;7.77;;;;;20.80;99079.00;;;;2047968;28;20774;-55
2024/01/15 01:50:54;;;;;;;9.80;7.37;;;;;20.80;99072.00;;;;2055132;28;20222;-53
2024/01/15 01:51:58;;;;;;;10.63;7.93;;;;;20.80;99078.00;;;;2052460;28;20246;-53
2024/01/15 01:52:59;;;;;;;11.00;7.85;;;;;20.70;99068.00;;;;2040823;28;20712;-53
2024/01/15 01:54:00;;;;;;;9.68;7.18;;;;;20.80;99085.00;;;;2050648;28;20219;-54
2024/01/15 01:55:00;;;;;;;9.90;7.60;;;;;20.70;99069.00;;;;2035203;29;20237;-54
2024/01/15 01:56:00;;;;;;;9.87;7.67;;;;;20.80;99078.00;;;;2051040;28;20215;-52
2024/01/15 01:57:02;;;;;;;11.83;7.53;;;;;20.70;99090.00;;;;2065925;28;20218;-56
2024/01/15 01:58:02;;;;;;;9.77;7.03;;;;;20.70;99082.00;;;;2037533;28;20232;-53
2024/01/15 01:59:03;;;;;;;9.57;7.23;;;;;20.70;99149.00;;;;2048965;28;20254;-52
2024/01/15 02:00:04;;;;;;;10.57;7.47;;;;;20.70;99087.00;;;;2045442;28;20701;-55
2024/01/15 02:01:04;;;;;;;9.30;6.77;;;;;20.70;99082.00;;;;2049573;28;20719;-53
2024/01/15 02:02:04;;;;;;;10.43;7.70;;;;;20.70;99058.00;;;;2048523;28;20266;-53
2024/01/15 02:03:05;;;;;;;10.27;6.97;;;;;20.70;99094.00;;;;2034282;28;20224;-53
2024/01/15 02:04:05;;;;;;;10.23;7.53;;;;;20.70;99090.00;;;;2057925;28;20241;-53
2024/01/15 02:05:06;;;;;;;8.80;6.83;;;;;20.70;99097.00;;;;2051963;28;20204;-55
2024/01/15 02:06:06;;;;;;;9.47;7.00;;;;;20.70;99093.00;;;;2042944;29;20212;-53
2024/01/15 02:07:07;;;;;;;11.70;6.80;;;;;20.70;99091.00;;;;2051991;28;20215;-52
2024/01/15 02:08:07;;;;;;;9.07;7.20;;;;;20.70;99087.00;;;;2039184;28;20227;-53
2024/01/15 02:09:07;;;;;;;9.00;6.87;;;;;20.70;99083.00;;;;2050956;28;20241;-53
2024/01/15 02:10:08;;;;;;;9.40;6.53;;;;;20.70;99081.00;;;;2047706;28;20208;-55
2024/01/15 02:11:09;;;;;;;10.00;6.45;;;;;20.70;99090.00;;;;2042952;29;20327;-53
2024/01/15 02:12:10;;;;;;;9.50;6.80;;;;;20.70;99085.00;;;;2041223;28;20767;-55
2024/01/15 02:13:10;;;;;;;7.90;6.30;;;;;20.70;99110.00;;;;2031310;28;20744;-55
2024/01/15 02:14:10;;;;;;;8.57;7.00;;;;;20.70;99088.00;;;;2045051;28;20743;-53
2024/01/15 02:15:11;;;;;;;9.03;7.30;;;;;20.70;99122.00;;;;2052332;28;20314;-55
2024/01/15 02:16:11;;;;;;;8.80;6.90;;;;;20.70;99091.00;;;;2044726;28;20219;-54
2024/01/15 02:17:11;;;;;;;8.60;6.53;;;;;20.70;99090.00;;;;2045083;28;20208;-54
2024/01/15 02:18:12;;;;;;;9.07;6.40;;;;;20.70;99088.00;;;;2034809;28;20231;-53
2024/01/15 02:19:18;;;;;;;9.63;7.27;;;;;20.70;99089.00;;;;2044348;28;20216;-55
2024/01/15 02:20:19;;;;;;;8.27;6.60;;;;;20.70;99090.00;;;;2052255;28;20222;-54
2024/01/15 02:21:19;;;;;;;12.13;7.53;;;;;20.70;99090.00;;;;2048907;28;20294;-55
2024/01/15 02:22:19;;;;;;;10.27;7.13;;;;;20.60;99091.00;;;;2044860;28;20270;-54
2024/01/15 02:23:20;;;;;;;9.90;6.93;;;;;20.60;99093.00;;;;2033565;28;20219;-54
2024/01/15 02:24:20;;;;;;;10.10;6.50;;;;;20.60;99073.00;;;;2047385;28;20250;-54
2024/01/15 02:25:20;;;;;;;7.97;6.33;;;;;20.60;99096.00;;;;2060991;28;20225;-54
2024/01/15 02:26:21;;;;;;;8.77;6.80;;;;;20.60;99088.00;;;;2056751;28;20215;-55
2024/01/15 02:27:21;;;;;;;9.47;6.70;;;;;20.60;99096.00;;;;2044428;28;20247;-53
2024/01/15 02:28:22;;;;;;;9.53;5.87;;;;;20.60;99097.00;;;;2037496;28;20501;-53
2024/01/15 02:29:22;;;;;;;7.80;5.90;;;;;20.60;99100.00;;;;2048313;28;20211;-53
2024/01/15 02:30:22;;;;;;;7.50;5.93;;;;;19.90;99093.00;;;;2041634;28;20299;-53
2024/01/15 02:31:23;;;;;;;9.70;6.30;;;;;20.60;99089.00;;;;2036328;28;20220;-55
2024/01/15 02:32:23;;;;;;;9.60;7.03;;;;;20.60;99092.00;;;;2048462;28;20224;-54
2024/01/15 02:33:23;;;;;;;8.00;6.10;;;;;20.60;99088.00;;;;2039086;28;20307;-53
2024/01/15 02:34:24;;;;;;;7.10;5.53;;;;;20.60;99094.00;;;;2050477;28;20263;-53
2024/01/15 02:35:24;;;;;;;9.23;6.33;;;;;20.60;99086.00;;;;2044186;28;20251;-53
2024/01/15 02:36:24;;;;;;;9.43;6.20;;;;;20.60;99091.00;;;;2044941;28;20239;-55
2024/01/15 02:37:25;;;;;;;8.70;6.20;;;;;20.60;99092.00;;;;2048961;28;20224;-53
2024/01/15 02:38:25;;;;;;;8.40;5.87;;;;;20.60;99092.00;;;;2032810;28;20692;-55
2024/01/15 02:39:25;;;;;;;8.33;6.13;;;;;20.60;99095.00;;;;2056815;28;20710;-53
2024/01/15 02:40:26;;;;;;;7.07;6.20;;;;;20.60;99086.00;;;;2045004;28;20683;-55
2024/01/15 02:41:26;;;;;;;8.73;6.57;;;;;20.60;99091.00;;;;2047246;28;20226;-53
2024/01/15 02:42:26;;;;;;;8.70;5.73;;;;;20.60;99100.00;;;;2044979;28;20300;-56
2024/01/15 02:43:27;;;;;;;8.07;5.80;;;;;20.60;99089.00;;;;2044139;28;20257;-53
2024/01/15 02:44:27;;;;;;;7.40;6.20;;;;;20.50;99089.00;;;;2052552;28;20215;-53
2024/01/15 02:45:27;;;;;;;7.87;6.27;;;;;20.60;99100.00;;;;2050074;28;20270;-56
2024/01/15 02:46:28;;;;;;;7.10;6.17;;;;;20.60;99092.00;;;;2044738;28;21025;-54
2024/01/15 02:47:28;;;;;;;7.30;5.50;;;;;20.60;99090.00;;;;2039413;28;20234;-54
2024/01/15 02:48:28;;;;;;;8.20;6.23;;;;;20.60;99089.00;;;;2046894;28;20211;-53
2024/01/15 02:49:29;;;;;;;7.77;5.80;;;;;20.60;99091.00;;;;2052161;28;20332;-53
2024/01/15 02:50:29;;;;;;;6.83;5.47;;;;;20.60;99084.00;;;;2050594;28;20225;-53
2024/01/15 02:51:30;;;;;;;9.37;6.50;;;;;20.60;99089.00;;;;2047370;28;20227;-55
2024/01/15 02:52:30;;;;;;;8.07;5.80;;;;;20.50;99084.00;;;;2045512;28;20564;-54
2024/01/15 02:53:30;;;;;;;7.70;5.93;;;;;20.60;99079.00;;;;2053603;28;20596;-53
2024/01/15 02:54:31;;;;;;;7.83;5.63;;;;;20.60;99070.00;;;;2051215;28;20639;-53
2024/01/15 02:55:31;;;;;;;8.10;5.70;;;;;20.50;99074.00;;;;2046265;28;20756;-53
2024/01/15 02:56:31;;;;;;;8.40;5.90;;;;;20.50;99075.00;;;;2048865;28;21203;-53
2024/01/15 02:57:32;;;;;;;5.90;5.07;;;;;20.50;99072.00;;;;2037276;28;20227;-52
2024/01/15 02:58:32;;;;;;;8.10;6.50;;;;;20.50;99073.00;;;;2045305;28;20342;-53
2024/01/15 02:59:32;;;;;;;7.77;5.63;;;;;20.50;99076.00;;;;2046138;28;20231;-55
2024/01/15 03:00:32;;;;;;;6.83;5.47;;;;;20.50;99069.00;;;;2042045;28;20219;-53
2024/01/15 03:01:33;;;;;;;7.87;5.80;;;;;20.50;99079.00;;;;2048749;28;20335;-53
2024/01/15 03:02:37;;;;;;;10.43;6.57;;;;;20.50;99078.00;;;;2036991;28;20274;-55
2024/01/15 03:03:37;;;;;;;7.28;5.60;;;;;20.50;99080.00;;;;2061754;28;20325;-54
2024/01/15 03:04:37;;;;;;;6.90;5.03;;;;;20.50;99068.00;;;;2056883;28;20223;-52
2024/01/15 03:05:38;;;;;;;8.63;6.43;;;;;20.50;99070.00;;;;2044453;28;20307;-53
2024/01/15 03:06:38;;;;;;;7.53;5.33;;;;;20.50;99075.00;;;;2046150;28;20864;-53
2024/01/15 03:07:38;;;;;;;8.50;6.17;;;;;20.50;99075.00;;;;2040240;28;20216;-53
2024/01/15 03:08:39;;;;;;;7.20;5.50;;;;;20.50;99080.00;;;;2045809;28;20212;-52
2024/01/15 03:09:39;;;;;;;6.17;5.10;;;;;20.50;99069.00;;;;2050307;28;20242;-54
2024/01/15 03:10:39;;;;;;;6.90;4.90;;;;;20.50;99076.00;;;;2050560;28;20212;-53
2024/01/15 03:11:40;;;;;;;6.30;4.67;;;;;20.50;99091.00;;;;2046505;28;20950;-54
2024/01/15 03:12:40;;;;;;;6.37;5.13;;;;;20.50;99075.00;;;;2043262;28;20865;-54
2024/01/15 03:13:40;;;;;;;6.77;5.13;;;;;20.50;99072.00;;;;2054442;28;20250;-53
2024/01/15 03:14:41;;;;;;;6.43;5.07;;;;;20.50;99071.00;;;;2049273;28;20208;-53
2024/01/15 03:15:42;;;;;;;8.13;5.60;;;;;20.50;99077.00;;;;2046059;28;20227;-55
2024/01/15 03:16:42;;;;;;;7.70;5.40;;;;;20.50;99074.00;;;;2050654;28;20273;-53
2024/01/15 03:17:43;;;;;;;8.30;5.60;;;;;20.50;99076.00;;;;2034849;28;20965;-53
2024/01/15 03:18:43;;;;;;;6.43;4.33;;;;;20.40;99077.00;;;;2054767;28;20215;-55
2024/01/15 03:19:44;;;;;;;8.20;6.20;;;;;20.50;99075.00;;;;2056339;28;20319;-54
2024/01/15 03:20:44;;;;;;;7.40;5.27;;;;;20.50;99083.00;;;;2053274;28;20594;-53
2024/01/15 03:21:45;;;;;;;6.90;5.00;;;;;20.40;99081.00;;;;2049078;28;20219;-53
2024/01/15 03:22:45;;;;;;;8.00;5.40;;;;;20.40;99077.00;;;;2034346;28;20234;-52
2024/01/15 03:23:45;;;;;;;6.00;4.60;;;;;20.40;99075.00;;;;2050236;28;20249;-53
2024/01/15 03:24:46;;;;;;;8.90;4.90;;;;;20.40;99074.00;;;;2053998;28;20211;-56
2024/01/15 03:25:46;;;;;;;5.63;4.60;;;;;20.40;99072.00;;;;2053490;28;20303;-54
2024/01/15 03:26:46;;;;;;;7.23;4.93;;;;;20.40;99066.00;;;;2061808;28;20229;-53
2024/01/15 03:27:46;;;;;;;6.80;4.67;;;;;20.50;99077.00;;;;2054660;28;20302;-53
2024/01/15 03:28:47;;;;;;;5.70;4.60;;;;;20.40;99068.00;;;;2051804;28;20370;-52
2024/01/15 03:29:47;;;;;;;7.07;4.73;;;;;20.40;99068.00;;;;2053047;28;20204;-53
2024/01/15 03:30:47;;;;;;;6.83;5.10;;;;;20.40;99077.00;;;;2050224;28;20282;-52
2024/01/15 03:31:48;;;;;;;7.27;5.00;;;;;20.50;99069.00;;;;2049560;28;20299;-53
2024/01/15 03:32:49;;;;;;;7.27;4.60;;;;;20.40;99071.00;;;;2039147;28;20227;-55
2024/01/15 03:33:50;;;;;;;6.43;4.43;;;;;20.40;99069.00;;;;2056354;28;20676;-55
2024/01/15 03:34:52;;;;;;;6.40;4.90;;;;;20.40;99068.00;;;;2051746;28;20227;-55
2024/01/15 03:35:52;;;;;;;6.85;4.90;;;;;20.40;99077.00;;;;2053284;28;20263;-55
2024/01/15 03:36:52;;;;;;;6.00;4.57;;;;;20.50;99081.00;;;;2049137;28;20224;-55
2024/01/15 03:37:53;;;;;;;6.87;4.90;;;;;20.40;99080.00;;;;2041488;28;20231;-53
2024/01/15 03:38:53;;;;;;;6.17;4.30;;;;;20.40;99076.00;;;;2054247;28;20223;-53
2024/01/15 03:39:53;;;;;;;6.00;4.47;;;;;20.40;99075.00;;;;2051876;28;20231;-55
2024/01/15 03:40:54;;;;;;;5.90;4.30;;;;;20.40;99069.00;;;;2056350;28;20239;-53
2024/01/15 03:41:55;;;;;;;6.70;5.00;;;;;20.40;99074.00;;;;2051774;28;20275;-54
2024/01/15 03:42:55;;;;;;;6.13;4.27;;;;;20.40;99070.00;;;;2042741;28;20227;-53
2024/01/15 03:43:56;;;;;;;6.73;4.73;;;;;20.40;99078.00;;;;2048227;28;20467;-52
2024/01/15 03:44:56;;;;;;;6.03;4.43;;;;;20.40;99072.00;;;;2050365;28;20627;-52
2024/01/15 03:45:56;;;;;;;7.57;4.30;;;;;20.40;99081.00;;;;2047536;28;20311;-52
2024/01/15 03:46:57;;;;;;;6.60;4.53;;;;;20.40;99077.00;;;;2047145;28;20219;-54
2024/01/15 03:47:58;;;;;;;5.63;4.45;;;;;20.40;99074.00;;;;2048023;28;20693;-53
2024/01/15 03:48:58;;;;;;;6.23;4.77;;;;;20.40;99068.00;;;;2055575;28;20234;-53
2024/01/15 03:49:59;;;;;;;6.43;4.40;;;;;20.40;99120.00;;;;2054954;28;20676;-53
2024/01/15 03:50:59;;;;;;;5.37;3.80;;;;;20.40;99076.00;;;;2052342;28;20708;-53
2024/01/15 03:51:59;;;;;;;6.37;4.10;;;;;20.40;99068.00;;;;2047904;28;20751;-53
2024/01/15 03:53:00;;;;;;;7.13;4.30;;;;;20.40;99075.00;;;;2034967;28;20224;-53
2024/01/15 03:54:00;;;;;;;5.90;3.83;;;;;20.40;99072.00;;;;2051717;28;20235;-52
2024/01/15 03:55:00;;;;;;;9.00;3.90;;;;;20.40;99074.00;;;;2049939;28;20299;-53
2024/01/15 03:56:01;;;;;;;5.23;3.70;;;;;20.40;99073.00;;;;2045998;28;20216;-53
2024/01/15 03:57:01;;;;;;;7.40;4.20;;;;;20.40;99074.00;;;;2049076;28;20787;-53
2024/01/15 03:58:01;;;;;;;6.40;4.70;;;;;20.40;99071.00;;;;2041448;28;20230;-53
2024/01/15 03:59:02;;;;;;;6.83;4.43;;;;;20.40;99076.00;;;;2048883;28;20278;-53
2024/01/15 04:00:03;;;;;;;5.83;4.00;;;;;20.40;99063.00;;;;2049621;28;20231;-53
2024/01/15 04:01:03;;;;;;;5.63;4.25;;;;;20.40;99072.00;;;;2052798;28;20239;-53
2024/01/15 04:02:04;;;;;;;5.63;3.80;;;;;20.40;99075.00;;;;2046467;28;20741;-55
2024/01/15 04:03:04;;;;;;;5.40;4.00;;;;;20.30;99069.00;;;;2041728;28;20742;-53
2024/01/15 04:04:05;;;;;;;5.07;3.83;;;;;20.30;99066.00;;;;2045164;28;20226;-54
2024/01/15 04:05:05;;;;;;;5.33;4.30;;;;;20.30;99069.00;;;;2047106;28;20228;-53
2024/01/15 04:06:05;;;;;;;4.73;3.33;;;;;20.30;99071.00;;;;2050161;28;20281;-54
2024/01/15 04:07:06;;;;;;;6.30;4.37;;;;;19.90;99065.00;;;;2052522;28;20233;-53
2024/01/15 04:08:06;;;;;;;9.03;4.23;;;;;20.30;99073.00;;;;2025983;28;20212;-54
2024/01/15 04:09:06;;;;;;;5.37;3.50;;;;;20.30;99067.00;;;;2045756;28;20212;-54
2024/01/15 04:10:07;;;;;;;6.90;3.97;;;;;20.30;99069.00;;;;2045833;28;20223;-53
2024/01/15 04:11:07;;;;;;;5.83;3.60;;;;;20.30;99059.00;;;;2046635;28;20220;-52
2024/01/15 04:12:08;;;;;;;5.37;3.53;;;;;20.30;99062.00;;;;2051083;28;20230;-53
2024/01/15 04:13:08;;;;;;;8.10;4.90;;;;;20.30;99082.00;;;;2036382;28;20224;-53
2024/01/15 04:14:08;;;;;;;5.43;3.83;;;;;20.30;99058.00;;;;2051993;28;22041;-54
2024/01/15 04:15:09;;;;;;;4.90;3.23;;;;;20.30;99051.00;;;;2052745;28;20707;-53
2024/01/15 04:16:09;;;;;;;5.73;3.57;;;;;20.30;99059.00;;;;2053208;28;20739;-53
2024/01/15 04:17:09;;;;;;;5.30;3.90;;;;;20.30;99059.00;;;;2051516;28;20580;-53
2024/01/15 04:18:10;;;;;;;5.97;3.80;;;;;20.30;99067.00;;;;2044399;28;20813;-53
2024/01/15 04:19:10;;;;;;;5.07;3.57;;;;;20.30;99055.00;;;;2050423;28;20303;-53
2024/01/15 04:20:10;;;;;;;4.90;4.00;;;;;20.30;99048.00;;;;2053584;28;20581;-53
2024/01/15 04:21:11;;;;;;;4.83;3.60;;;;;20.30;99054.00;;;;2048407;28;20961;-53
2024/01/15 04:22:11;;;;;;;5.40;3.77;;;;;20.30;99042.00;;;;2050973;28;20725;-53
2024/01/15 04:23:12;;;;;;;5.10;3.90;;;;;20.30;99038.00;;;;2042676;28;20242;-54
2024/01/15 04:24:12;;;;;;;5.23;4.40;;;;;20.30;99038.00;;;;2053588;28;20212;-53
2024/01/15 04:25:12;;;;;;;5.00;3.73;;;;;20.30;99039.00;;;;2053449;28;20208;-53
2024/01/15 04:26:13;;;;;;;6.37;3.77;;;;;20.30;99044.00;;;;2052714;28;20249;-53
2024/01/15 04:27:13;;;;;;;5.20;3.40;;;;;20.30;99042.00;;;;2046010;28;20220;-53
2024/01/15 04:28:14;;;;;;;5.63;3.60;;;;;20.30;99041.00;;;;2036509;28;20630;-53
2024/01/15 04:29:14;;;;;;;6.77;3.47;;;;;20.30;99035.00;;;;2055825;28;20256;-53
2024/01/15 04:30:14;;;;;;;5.27;3.90;;;;;20.30;99030.00;;;;2052148;28;20266;-53
2024/01/15 04:31:26;;;;;;;4.27;3.50;;;;;20.30;99031.00;;;;2049530;28;20235;-53
2024/01/15 04:32:27;;;;;;;6.32;4.07;;;;;20.30;99043.00;;;;2048099;28;20234;-54
2024/01/15 04:33:27;;;;;;;5.27;3.10;;;;;20.30;99034.00;;;;2039446;28;20231;-53
2024/01/15 04:34:27;;;;;;;5.40;3.70;;;;;20.30;99037.00;;;;2052642;28;20223;-53
2024/01/15 04:35:28;;;;;;;4.50;3.53;;;;;20.30;99027.00;;;;2046267;28;20743;-53
2024/01/15 04:36:28;;;;;;;5.00;3.73;;;;;20.30;99028.00;;;;2049876;28;20224;-53
2024/01/15 04:37:28;;;;;;;4.50;3.37;;;;;20.30;99019.00;;;;2039783;28;20220;-53
2024/01/15 04:38:29;;;;;;;4.70;3.10;;;;;20.30;99020.00;;;;2046920;28;20251;-53
2024/01/15 04:39:29;;;;;;;5.13;4.03;;;;;20.30;99015.00;;;;2045317;28;20232;-54
2024/01/15 04:40:29;;;;;;;4.93;3.50;;;;;20.30;98890.00;;;;2044306;28;20255;-53
2024/01/15 04:41:30;;;;;;;6.30;3.93;;;;;20.30;99012.00;;;;2052255;28;20610;-53
2024/01/15 04:42:30;;;;;;;5.73;3.53;;;;;20.30;99025.00;;;;2039805;28;20299;-53
2024/01/15 04:43:30;;;;;;;7.37;3.63;;;;;20.30;99015.00;;;;2055092;28;20222;-53
2024/01/15 04:44:31;;;;;;;5.37;3.77;;;;;20.30;99020.00;;;;2054051;28;20239;-53
2024/01/15 04:45:31;;;;;;;4.67;3.20;;;;;20.20;99019.00;;;;2044806;28;20401;-53
2024/01/15 04:46:31;;;;;;;4.53;3.50;;;;;20.30;99025.00;;;;2036916;28;20566;-53
2024/01/15 04:47:31;;;;;;;5.20;3.80;;;;;20.30;99022.00;;;;2027161;28;20224;-53
2024/01/15 04:48:32;;;;;;;5.33;3.70;;;;;20.20;99014.00;;;;2051828;28;20246;-53
2024/01/15 04:49:32;;;;;;;4.50;3.60;;;;;20.30;99023.00;;;;2044428;28;20227;-53
2024/01/15 04:50:32;;;;;;;5.00;3.80;;;;;20.30;99021.00;;;;2046843;28;20223;-52
2024/01/15 04:51:33;;;;;;;4.80;3.67;;;;;20.30;99028.00;;;;2038334;28;20262;-53
2024/01/15 04:52:33;;;;;;;7.57;2.83;;;;;20.20;99029.00;;;;2039731;28;20227;-53
2024/01/15 04:53:34;;;;;;;5.30;3.30;;;;;20.00;99023.00;;;;2049705;28;20612;-53
2024/01/15 04:54:34;;;;;;;4.40;3.27;;;;;20.20;99017.00;;;;2046380;28;20564;-53
2024/01/15 04:55:35;;;;;;;5.80;3.70;;;;;20.20;99016.00;;;;2057724;28;20476;-53
2024/01/15 04:56:35;;;;;;;4.80;3.43;;;;;20.20;99013.00;;;;2049735;28;20229;-53
2024/01/15 04:57:35;;;;;;;4.83;3.73;;;;;20.20;99017.00;;;;2043429;28;20251;-53
2024/01/15 04:58:36;;;;;;;4.10;3.37;;;;;20.20;99019.00;;;;2052762;28;20282;-53
2024/01/15 04:59:36;;;;;;;4.57;3.37;;;;;20.20;99015.00;;;;2045842;28;20228;-53
2024/01/15 05:00:36;;;;;;;4.97;2.93;;;;;20.20;99018.00;;;;2053283;28;20223;-53